sensor_id;sensor_type;location;lat;lon;timestamp;P1;durP1;ratioP1;P2;durP2;ratioP2
434;SDS011;204;48.942;9.256;2023-04-24T00:02:03;1.53;;;1.30;;
434;SDS011;204;48.942;9.256;2023-04-24T00:04:29;1.37;;;1.00;;
434;SDS011;204;48.942;9.256;2023-04-24T00:06:55;1.00;;;0.90;;
434;SDS011;204;48.942;9.256;2023-04-24T00:09:22;0.85;;;0.82;;
434;SDS011;204;48.942;9.256;2023-04-24T00:11:47;1.75;;;0.98;;
434;SDS011;204;48.942;9.256;2023-04-24T00:14:13;1.53;;;0.77;;
434;SDS011;204;48.942;9.256;2023-04-24T00:16:39;6.83;;;1.07;;
434;SDS011;204;48.942;9.256;2023-04-24T00:19:04;1.77;;;1.00;;
434;SDS011;204;48.942;9.256;2023-04-24T00:21:31;1.00;;;0.90;;
434;SDS011;204;48.942;9.256;2023-04-24T00:23:57;1.17;;;1.05;;
434;SDS011;204;48.942;9.256;2023-04-24T00:26:23;0.73;;;0.60;;
434;SDS011;204;48.942;9.256;2023-04-24T00:28:49;1.77;;;1.00;;
434;SDS011;204;48.942;9.256;2023-04-24T00:31:14;2.10;;;1.00;;
434;SDS011;204;48.942;9.256;2023-04-24T00:33:40;1.03;;;0.80;;
434;SDS011;204;48.942;9.256;2023-04-24T00:36:06;2.65;;;1.00;;
434;SDS011;204;48.942;9.256;2023-04-24T00:38:32;2.45;;;0.73;;
434;SDS011;204;48.942;9.256;2023-04-24T00:40:58;1.33;;;0.80;;
434;SDS011;204;48.942;9.256;2023-04-24T00:43:23;1.93;;;1.00;;
434;SDS011;204;48.942;9.256;2023-04-24T00:45:49;2.50;;;0.93;;
434;SDS011;204;48.942;9.256;2023-04-24T00:48:15;1.47;;;0.90;;
434;SDS011;204;48.942;9.256;2023-04-24T00:50:41;2.15;;;0.85;;
434;SDS011;204;48.942;9.256;2023-04-24T00:53:07;1.80;;;1.13;;
434;SDS011;204;48.942;9.256;2023-04-24T00:55:32;1.57;;;1.20;;
434;SDS011;204;48.942;9.256;2023-04-24T00:57:58;0.90;;;0.70;;
434;SDS011;204;48.942;9.256;2023-04-24T01:00:24;1.83;;;0.93;;
434;SDS011;204;48.942;9.256;2023-04-24T01:02:50;0.80;;;0.70;;
434;SDS011;204;48.942;9.256;2023-04-24T01:05:17;0.93;;;0.60;;
434;SDS011;204;48.942;9.256;2023-04-24T01:07:44;3.13;;;0.70;;
434;SDS011;204;48.942;9.256;2023-04-24T01:10:13;5.13;;;1.00;;
434;SDS011;204;48.942;9.256;2023-04-24T01:12:39;2.88;;;0.57;;
434;SDS011;204;48.942;9.256;2023-04-24T01:15:05;1.67;;;0.80;;
434;SDS011;204;48.942;9.256;2023-04-24T01:17:31;1.40;;;0.90;;
434;SDS011;204;48.942;9.256;2023-04-24T01:19:58;0.60;;;0.57;;
434;SDS011;204;48.942;9.256;2023-04-24T01:22:25;2.70;;;1.13;;
434;SDS011;204;48.942;9.256;2023-04-24T01:24:51;0.90;;;0.80;;
434;SDS011;204;48.942;9.256;2023-04-24T01:27:18;1.92;;;1.10;;
434;SDS011;204;48.942;9.256;2023-04-24T01:29:44;2.25;;;0.70;;
434;SDS011;204;48.942;9.256;2023-04-24T01:32:10;0.83;;;0.70;;
434;SDS011;204;48.942;9.256;2023-04-24T01:34:36;1.37;;;0.67;;
434;SDS011;204;48.942;9.256;2023-04-24T01:37:02;1.35;;;0.60;;
434;SDS011;204;48.942;9.256;2023-04-24T01:39:28;2.10;;;0.90;;
434;SDS011;204;48.942;9.256;2023-04-24T01:41:54;1.37;;;0.60;;
434;SDS011;204;48.942;9.256;2023-04-24T01:44:20;2.65;;;1.00;;
434;SDS011;204;48.942;9.256;2023-04-24T01:46:46;2.20;;;0.70;;
434;SDS011;204;48.942;9.256;2023-04-24T01:49:11;3.13;;;1.00;;
434;SDS011;204;48.942;9.256;2023-04-24T01:51:37;2.07;;;1.23;;
434;SDS011;204;48.942;9.256;2023-04-24T01:54:03;1.33;;;0.70;;
434;SDS011;204;48.942;9.256;2023-04-24T01:56:30;4.78;;;1.10;;
434;SDS011;204;48.942;9.256;2023-04-24T01:58:58;0.70;;;0.63;;
434;SDS011;204;48.942;9.256;2023-04-24T02:01:25;2.05;;;0.90;;
434;SDS011;204;48.942;9.256;2023-04-24T02:03:50;1.43;;;1.10;;
434;SDS011;204;48.942;9.256;2023-04-24T02:06:16;2.43;;;0.87;;
434;SDS011;204;48.942;9.256;2023-04-24T02:08:41;1.67;;;0.90;;
434;SDS011;204;48.942;9.256;2023-04-24T02:11:10;1.33;;;0.90;;
434;SDS011;204;48.942;9.256;2023-04-24T02:13:36;0.90;;;0.80;;
434;SDS011;204;48.942;9.256;2023-04-24T02:16:01;1.97;;;0.70;;
434;SDS011;204;48.942;9.256;2023-04-24T02:18:27;1.60;;;1.00;;
434;SDS011;204;48.942;9.256;2023-04-24T02:20:53;1.57;;;1.10;;
434;SDS011;204;48.942;9.256;2023-04-24T02:23:19;2.58;;;1.02;;
434;SDS011;204;48.942;9.256;2023-04-24T02:25:45;2.10;;;1.00;;
434;SDS011;204;48.942;9.256;2023-04-24T02:28:10;1.27;;;0.80;;
434;SDS011;204;48.942;9.256;2023-04-24T02:30:36;1.00;;;0.90;;
434;SDS011;204;48.942;9.256;2023-04-24T02:33:01;0.90;;;0.67;;
434;SDS011;204;48.942;9.256;2023-04-24T02:35:28;1.00;;;0.80;;
434;SDS011;204;48.942;9.256;2023-04-24T02:37:53;1.30;;;0.80;;
434;SDS011;204;48.942;9.256;2023-04-24T02:40:19;2.53;;;0.90;;
434;SDS011;204;48.942;9.256;2023-04-24T02:42:45;1.60;;;0.87;;
434;SDS011;204;48.942;9.256;2023-04-24T02:45:10;4.10;;;1.73;;
434;SDS011;204;48.942;9.256;2023-04-24T02:47:36;1.53;;;0.80;;
434;SDS011;204;48.942;9.256;2023-04-24T02:50:02;1.17;;;0.90;;
434;SDS011;204;48.942;9.256;2023-04-24T02:52:28;2.58;;;0.88;;
434;SDS011;204;48.942;9.256;2023-04-24T02:54:53;3.93;;;0.70;;
434;SDS011;204;48.942;9.256;2023-04-24T02:57:19;1.30;;;0.73;;
434;SDS011;204;48.942;9.256;2023-04-24T02:59:45;0.77;;;0.73;;
434;SDS011;204;48.942;9.256;2023-04-24T03:02:10;2.57;;;1.00;;
434;SDS011;204;48.942;9.256;2023-04-24T03:04:36;1.80;;;0.83;;
434;SDS011;204;48.942;9.256;2023-04-24T03:07:01;0.90;;;0.77;;
434;SDS011;204;48.942;9.256;2023-04-24T03:09:27;3.23;;;0.70;;
434;SDS011;204;48.942;9.256;2023-04-24T03:11:52;1.37;;;0.70;;
434;SDS011;204;48.942;9.256;2023-04-24T03:14:18;1.33;;;0.57;;
434;SDS011;204;48.942;9.256;2023-04-24T03:16:44;2.37;;;1.00;;
434;SDS011;204;48.942;9.256;2023-04-24T03:19:09;1.00;;;0.80;;
434;SDS011;204;48.942;9.256;2023-04-24T03:21:35;2.40;;;1.00;;
434;SDS011;204;48.942;9.256;2023-04-24T03:24:05;1.00;;;0.95;;
434;SDS011;204;48.942;9.256;2023-04-24T03:26:31;1.35;;;0.90;;
434;SDS011;204;48.942;9.256;2023-04-24T03:28:57;1.00;;;0.63;;
434;SDS011;204;48.942;9.256;2023-04-24T03:31:23;1.90;;;1.27;;
434;SDS011;204;48.942;9.256;2023-04-24T03:33:48;0.80;;;0.77;;
434;SDS011;204;48.942;9.256;2023-04-24T03:36:14;1.53;;;0.70;;
434;SDS011;204;48.942;9.256;2023-04-24T03:38:40;1.00;;;1.00;;
434;SDS011;204;48.942;9.256;2023-04-24T03:41:05;0.70;;;0.70;;
434;SDS011;204;48.942;9.256;2023-04-24T03:43:31;1.43;;;0.97;;
434;SDS011;204;48.942;9.256;2023-04-24T03:45:58;1.73;;;1.05;;
434;SDS011;204;48.942;9.256;2023-04-24T03:48:23;0.80;;;0.77;;
434;SDS011;204;48.942;9.256;2023-04-24T03:50:49;1.47;;;0.90;;
434;SDS011;204;48.942;9.256;2023-04-24T03:53:15;1.33;;;0.97;;
434;SDS011;204;48.942;9.256;2023-04-24T03:55:40;1.67;;;0.73;;
434;SDS011;204;48.942;9.256;2023-04-24T03:58:06;2.87;;;0.80;;
434;SDS011;204;48.942;9.256;2023-04-24T04:00:32;0.60;;;0.60;;
434;SDS011;204;48.942;9.256;2023-04-24T04:02:58;2.53;;;1.00;;
434;SDS011;204;48.942;9.256;2023-04-24T04:05:23;1.63;;;0.70;;
434;SDS011;204;48.942;9.256;2023-04-24T04:07:49;2.27;;;0.80;;
434;SDS011;204;48.942;9.256;2023-04-24T04:10:14;2.90;;;1.17;;
434;SDS011;204;48.942;9.256;2023-04-24T04:12:42;2.40;;;0.90;;
434;SDS011;204;48.942;9.256;2023-04-24T04:15:07;0.90;;;0.80;;
434;SDS011;204;48.942;9.256;2023-04-24T04:17:33;0.97;;;0.80;;
434;SDS011;204;48.942;9.256;2023-04-24T04:19:59;2.07;;;1.20;;
434;SDS011;204;48.942;9.256;2023-04-24T04:22:25;5.77;;;0.93;;
434;SDS011;204;48.942;9.256;2023-04-24T04:24:52;1.50;;;1.20;;
434;SDS011;204;48.942;9.256;2023-04-24T04:27:18;4.07;;;1.13;;
434;SDS011;204;48.942;9.256;2023-04-24T04:29:44;3.50;;;1.40;;
434;SDS011;204;48.942;9.256;2023-04-24T04:32:09;2.70;;;1.42;;
434;SDS011;204;48.942;9.256;2023-04-24T04:34:35;3.27;;;1.50;;
434;SDS011;204;48.942;9.256;2023-04-24T04:37:02;1.75;;;1.02;;
434;SDS011;204;48.942;9.256;2023-04-24T04:39:28;1.67;;;1.17;;
434;SDS011;204;48.942;9.256;2023-04-24T04:41:54;1.90;;;1.80;;
434;SDS011;204;48.942;9.256;2023-04-24T04:44:20;2.73;;;1.20;;
434;SDS011;204;48.942;9.256;2023-04-24T04:46:45;3.23;;;1.80;;
434;SDS011;204;48.942;9.256;2023-04-24T04:49:12;1.52;;;1.40;;
434;SDS011;204;48.942;9.256;2023-04-24T04:51:41;1.60;;;1.60;;
434;SDS011;204;48.942;9.256;2023-04-24T04:54:07;1.73;;;1.43;;
434;SDS011;204;48.942;9.256;2023-04-24T04:56:32;2.17;;;1.67;;
434;SDS011;204;48.942;9.256;2023-04-24T04:58:58;2.17;;;2.03;;
434;SDS011;204;48.942;9.256;2023-04-24T05:01:24;6.47;;;1.83;;
434;SDS011;204;48.942;9.256;2023-04-24T05:03:52;2.20;;;1.75;;
434;SDS011;204;48.942;9.256;2023-04-24T05:06:18;2.43;;;1.67;;
434;SDS011;204;48.942;9.256;2023-04-24T05:08:43;3.10;;;2.20;;
434;SDS011;204;48.942;9.256;2023-04-24T05:11:09;3.20;;;2.03;;
434;SDS011;204;48.942;9.256;2023-04-24T05:13:35;1.77;;;1.67;;
434;SDS011;204;48.942;9.256;2023-04-24T05:16:00;2.50;;;2.30;;
434;SDS011;204;48.942;9.256;2023-04-24T05:18:26;2.17;;;1.93;;
434;SDS011;204;48.942;9.256;2023-04-24T05:20:51;3.27;;;1.90;;
434;SDS011;204;48.942;9.256;2023-04-24T05:23:17;2.20;;;1.80;;
434;SDS011;204;48.942;9.256;2023-04-24T05:25:42;6.17;;;2.40;;
434;SDS011;204;48.942;9.256;2023-04-24T05:28:08;2.50;;;2.30;;
434;SDS011;204;48.942;9.256;2023-04-24T05:30:33;4.23;;;2.10;;
434;SDS011;204;48.942;9.256;2023-04-24T05:32:59;1.97;;;1.87;;
434;SDS011;204;48.942;9.256;2023-04-24T05:35:25;2.40;;;2.20;;
434;SDS011;204;48.942;9.256;2023-04-24T05:37:50;2.90;;;2.40;;
434;SDS011;204;48.942;9.256;2023-04-24T05:40:16;2.40;;;2.00;;
434;SDS011;204;48.942;9.256;2023-04-24T05:42:41;2.43;;;2.27;;
434;SDS011;204;48.942;9.256;2023-04-24T05:45:07;3.13;;;2.20;;
434;SDS011;204;48.942;9.256;2023-04-24T05:47:34;2.35;;;2.20;;
434;SDS011;204;48.942;9.256;2023-04-24T05:50:00;3.80;;;2.40;;
434;SDS011;204;48.942;9.256;2023-04-24T05:52:25;2.60;;;2.30;;
434;SDS011;204;48.942;9.256;2023-04-24T05:54:51;2.50;;;2.30;;
434;SDS011;204;48.942;9.256;2023-04-24T05:57:16;3.17;;;2.57;;
434;SDS011;204;48.942;9.256;2023-04-24T05:59:42;3.63;;;2.50;;
434;SDS011;204;48.942;9.256;2023-04-24T06:02:08;2.70;;;2.50;;
434;SDS011;204;48.942;9.256;2023-04-24T06:04:33;3.27;;;2.40;;
434;SDS011;204;48.942;9.256;2023-04-24T06:06:59;3.10;;;2.90;;
434;SDS011;204;48.942;9.256;2023-04-24T06:09:25;2.67;;;2.47;;
434;SDS011;204;48.942;9.256;2023-04-24T06:11:51;2.83;;;2.60;;
434;SDS011;204;48.942;9.256;2023-04-24T06:14:21;2.53;;;2.33;;
434;SDS011;204;48.942;9.256;2023-04-24T06:16:47;2.40;;;2.00;;
434;SDS011;204;48.942;9.256;2023-04-24T06:19:12;2.97;;;2.07;;
434;SDS011;204;48.942;9.256;2023-04-24T06:21:38;2.00;;;1.90;;
434;SDS011;204;48.942;9.256;2023-04-24T06:24:04;1.90;;;1.83;;
434;SDS011;204;48.942;9.256;2023-04-24T06:26:29;2.57;;;2.37;;
434;SDS011;204;48.942;9.256;2023-04-24T06:28:55;2.97;;;1.83;;
434;SDS011;204;48.942;9.256;2023-04-24T06:31:21;3.13;;;2.43;;
434;SDS011;204;48.942;9.256;2023-04-24T06:33:48;2.63;;;2.30;;
434;SDS011;204;48.942;9.256;2023-04-24T06:36:14;2.75;;;1.70;;
434;SDS011;204;48.942;9.256;2023-04-24T06:38:40;2.33;;;2.13;;
434;SDS011;204;48.942;9.256;2023-04-24T06:41:06;4.35;;;2.28;;
434;SDS011;204;48.942;9.256;2023-04-24T06:43:32;1.60;;;1.50;;
434;SDS011;204;48.942;9.256;2023-04-24T06:45:58;2.40;;;2.20;;
434;SDS011;204;48.942;9.256;2023-04-24T06:48:24;2.40;;;2.20;;
434;SDS011;204;48.942;9.256;2023-04-24T06:50:50;1.58;;;1.48;;
434;SDS011;204;48.942;9.256;2023-04-24T06:53:17;2.47;;;2.28;;
434;SDS011;204;48.942;9.256;2023-04-24T06:55:42;2.80;;;1.70;;
434;SDS011;204;48.942;9.256;2023-04-24T06:58:09;6.07;;;2.25;;
434;SDS011;204;48.942;9.256;2023-04-24T07:00:35;1.77;;;1.73;;
434;SDS011;204;48.942;9.256;2023-04-24T07:03:01;3.03;;;1.60;;
434;SDS011;204;48.942;9.256;2023-04-24T07:05:27;1.67;;;1.58;;
434;SDS011;204;48.942;9.256;2023-04-24T07:07:53;2.73;;;2.17;;
434;SDS011;204;48.942;9.256;2023-04-24T07:10:19;2.17;;;1.87;;
434;SDS011;204;48.942;9.256;2023-04-24T07:12:45;1.58;;;1.50;;
434;SDS011;204;48.942;9.256;2023-04-24T07:15:11;2.55;;;1.75;;
434;SDS011;204;48.942;9.256;2023-04-24T07:17:37;1.70;;;1.53;;
434;SDS011;204;48.942;9.256;2023-04-24T07:20:03;2.25;;;1.77;;
434;SDS011;204;48.942;9.256;2023-04-24T07:22:30;2.45;;;2.20;;
434;SDS011;204;48.942;9.256;2023-04-24T07:24:56;1.73;;;1.63;;
434;SDS011;204;48.942;9.256;2023-04-24T07:27:21;5.40;;;2.60;;
434;SDS011;204;48.942;9.256;2023-04-24T07:29:47;2.00;;;1.57;;
434;SDS011;204;48.942;9.256;2023-04-24T07:32:13;1.90;;;1.80;;
434;SDS011;204;48.942;9.256;2023-04-24T07:34:38;2.40;;;1.53;;
434;SDS011;204;48.942;9.256;2023-04-24T07:37:04;2.05;;;1.60;;
434;SDS011;204;48.942;9.256;2023-04-24T07:39:30;2.60;;;1.73;;
434;SDS011;204;48.942;9.256;2023-04-24T07:41:56;1.63;;;1.53;;
434;SDS011;204;48.942;9.256;2023-04-24T07:44:24;2.00;;;1.50;;
434;SDS011;204;48.942;9.256;2023-04-24T07:46:49;2.20;;;2.00;;
434;SDS011;204;48.942;9.256;2023-04-24T07:49:15;5.03;;;1.67;;
434;SDS011;204;48.942;9.256;2023-04-24T07:51:41;2.80;;;1.70;;
434;SDS011;204;48.942;9.256;2023-04-24T07:54:06;3.87;;;1.80;;
434;SDS011;204;48.942;9.256;2023-04-24T07:56:32;2.17;;;1.47;;
434;SDS011;204;48.942;9.256;2023-04-24T07:58:58;2.63;;;2.05;;
434;SDS011;204;48.942;9.256;2023-04-24T08:01:24;2.65;;;1.67;;
434;SDS011;204;48.942;9.256;2023-04-24T08:03:50;1.90;;;1.70;;
434;SDS011;204;48.942;9.256;2023-04-24T08:06:16;1.80;;;1.30;;
434;SDS011;204;48.942;9.256;2023-04-24T08:08:42;2.33;;;1.13;;
434;SDS011;204;48.942;9.256;2023-04-24T08:11:08;1.53;;;1.50;;
434;SDS011;204;48.942;9.256;2023-04-24T08:13:33;2.50;;;1.40;;
434;SDS011;204;48.942;9.256;2023-04-24T08:15:59;2.80;;;1.60;;
434;SDS011;204;48.942;9.256;2023-04-24T08:18:24;2.53;;;1.80;;
434;SDS011;204;48.942;9.256;2023-04-24T08:20:51;1.58;;;1.40;;
434;SDS011;204;48.942;9.256;2023-04-24T08:23:16;1.20;;;1.00;;
434;SDS011;204;48.942;9.256;2023-04-24T08:25:42;2.20;;;1.30;;
434;SDS011;204;48.942;9.256;2023-04-24T08:28:08;3.70;;;1.60;;
434;SDS011;204;48.942;9.256;2023-04-24T08:30:35;2.42;;;1.25;;
434;SDS011;204;48.942;9.256;2023-04-24T08:33:01;1.70;;;1.50;;
434;SDS011;204;48.942;9.256;2023-04-24T08:35:27;2.00;;;1.70;;
434;SDS011;204;48.942;9.256;2023-04-24T08:37:53;2.63;;;1.30;;
434;SDS011;204;48.942;9.256;2023-04-24T08:40:18;2.03;;;1.60;;
434;SDS011;204;48.942;9.256;2023-04-24T08:42:48;1.15;;;1.05;;
434;SDS011;204;48.942;9.256;2023-04-24T08:45:17;2.15;;;1.05;;
434;SDS011;204;48.942;9.256;2023-04-24T08:47:43;1.77;;;1.20;;
434;SDS011;204;48.942;9.256;2023-04-24T08:50:10;1.70;;;1.17;;
434;SDS011;204;48.942;9.256;2023-04-24T08:52:36;3.85;;;1.15;;
434;SDS011;204;48.942;9.256;2023-04-24T08:55:02;1.33;;;0.97;;
434;SDS011;204;48.942;9.256;2023-04-24T08:57:28;1.50;;;1.40;;
434;SDS011;204;48.942;9.256;2023-04-24T08:59:54;2.95;;;1.20;;
434;SDS011;204;48.942;9.256;2023-04-24T09:02:22;3.80;;;1.00;;
434;SDS011;204;48.942;9.256;2023-04-24T09:04:48;2.17;;;1.10;;
434;SDS011;204;48.942;9.256;2023-04-24T09:07:15;1.17;;;1.15;;
434;SDS011;204;48.942;9.256;2023-04-24T09:09:43;2.30;;;1.10;;
434;SDS011;204;48.942;9.256;2023-04-24T09:12:08;2.03;;;1.73;;
434;SDS011;204;48.942;9.256;2023-04-24T09:14:35;1.67;;;1.25;;
434;SDS011;204;48.942;9.256;2023-04-24T09:17:03;0.98;;;0.93;;
434;SDS011;204;48.942;9.256;2023-04-24T09:19:29;1.33;;;1.23;;
434;SDS011;204;48.942;9.256;2023-04-24T09:21:54;1.80;;;1.00;;
434;SDS011;204;48.942;9.256;2023-04-24T09:24:21;4.28;;;1.40;;
434;SDS011;204;48.942;9.256;2023-04-24T09:26:56;4.95;;;1.73;;
434;SDS011;204;48.942;9.256;2023-04-24T09:29:23;1.40;;;1.27;;
434;SDS011;204;48.942;9.256;2023-04-24T09:31:50;4.03;;;1.35;;
434;SDS011;204;48.942;9.256;2023-04-24T09:34:20;1.45;;;1.23;;
434;SDS011;204;48.942;9.256;2023-04-24T09:36:50;2.00;;;1.30;;
434;SDS011;204;48.942;9.256;2023-04-24T09:39:16;1.50;;;1.40;;
434;SDS011;204;48.942;9.256;2023-04-24T09:41:46;1.70;;;1.00;;
434;SDS011;204;48.942;9.256;2023-04-24T09:44:22;1.60;;;0.95;;
434;SDS011;204;48.942;9.256;2023-04-24T09:46:50;1.50;;;0.90;;
434;SDS011;204;48.942;9.256;2023-04-24T09:51:50;1.25;;;1.15;;
434;SDS011;204;48.942;9.256;2023-04-24T09:54:20;2.20;;;1.10;;
434;SDS011;204;48.942;9.256;2023-04-24T09:56:47;1.80;;;0.85;;
434;SDS011;204;48.942;9.256;2023-04-24T09:59:14;4.90;;;1.20;;
434;SDS011;204;48.942;9.256;2023-04-24T10:01:42;2.95;;;1.13;;
434;SDS011;204;48.942;9.256;2023-04-24T10:06:49;1.83;;;1.17;;
434;SDS011;204;48.942;9.256;2023-04-24T10:09:16;1.00;;;0.95;;
434;SDS011;204;48.942;9.256;2023-04-24T10:11:47;1.23;;;1.02;;
434;SDS011;204;48.942;9.256;2023-04-24T10:14:15;2.45;;;1.48;;
434;SDS011;204;48.942;9.256;2023-04-24T10:16:42;1.27;;;0.98;;
434;SDS011;204;48.942;9.256;2023-04-24T10:19:08;1.60;;;1.17;;
434;SDS011;204;48.942;9.256;2023-04-24T10:21:35;1.02;;;1.00;;
434;SDS011;204;48.942;9.256;2023-04-24T10:24:07;3.45;;;1.25;;
434;SDS011;204;48.942;9.256;2023-04-24T10:26:36;1.33;;;1.23;;
434;SDS011;204;48.942;9.256;2023-04-24T10:29:03;2.63;;;1.50;;
434;SDS011;204;48.942;9.256;2023-04-24T10:31:34;1.35;;;1.25;;
434;SDS011;204;48.942;9.256;2023-04-24T10:34:01;4.05;;;1.80;;
434;SDS011;204;48.942;9.256;2023-04-24T10:36:28;1.98;;;1.25;;
434;SDS011;204;48.942;9.256;2023-04-24T10:38:57;3.20;;;1.60;;
434;SDS011;204;48.942;9.256;2023-04-24T10:41:26;2.80;;;1.80;;
434;SDS011;204;48.942;9.256;2023-04-24T10:44:04;3.38;;;1.63;;
434;SDS011;204;48.942;9.256;2023-04-24T10:46:33;5.00;;;1.60;;
434;SDS011;204;48.942;9.256;2023-04-24T10:48:59;4.32;;;1.65;;
434;SDS011;204;48.942;9.256;2023-04-24T10:56:47;2.22;;;1.80;;
434;SDS011;204;48.942;9.256;2023-04-24T10:59:23;3.20;;;1.85;;
434;SDS011;204;48.942;9.256;2023-04-24T11:01:59;2.28;;;1.55;;
434;SDS011;204;48.942;9.256;2023-04-24T11:04:33;1.70;;;1.60;;
434;SDS011;204;48.942;9.256;2023-04-24T11:07:00;2.20;;;2.00;;
434;SDS011;204;48.942;9.256;2023-04-24T11:09:26;3.30;;;1.97;;
434;SDS011;204;48.942;9.256;2023-04-24T11:12:03;2.47;;;2.27;;
434;SDS011;204;48.942;9.256;2023-04-24T11:15:07;1.40;;;1.30;;
434;SDS011;204;48.942;9.256;2023-04-24T11:20:07;2.50;;;2.30;;
434;SDS011;204;48.942;9.256;2023-04-24T11:22:39;3.28;;;1.77;;
434;SDS011;204;48.942;9.256;2023-04-24T11:25:05;1.30;;;1.30;;
434;SDS011;204;48.942;9.256;2023-04-24T11:27:34;3.10;;;1.88;;
434;SDS011;204;48.942;9.256;2023-04-24T11:30:05;2.60;;;1.45;;
434;SDS011;204;48.942;9.256;2023-04-24T11:35:21;1.98;;;1.90;;
434;SDS011;204;48.942;9.256;2023-04-24T11:37:52;1.55;;;1.55;;
434;SDS011;204;48.942;9.256;2023-04-24T11:40:19;2.65;;;2.30;;
434;SDS011;204;48.942;9.256;2023-04-24T11:42:48;3.63;;;2.75;;
434;SDS011;204;48.942;9.256;2023-04-24T11:45:18;1.50;;;1.40;;
434;SDS011;204;48.942;9.256;2023-04-24T11:47:51;1.77;;;1.67;;
434;SDS011;204;48.942;9.256;2023-04-24T11:50:18;1.80;;;1.70;;
434;SDS011;204;48.942;9.256;2023-04-24T11:52:46;1.70;;;1.60;;
434;SDS011;204;48.942;9.256;2023-04-24T11:57:45;5.57;;;1.95;;
434;SDS011;204;48.942;9.256;2023-04-24T12:00:19;2.10;;;1.55;;
434;SDS011;204;48.942;9.256;2023-04-24T12:02:49;1.58;;;1.48;;
434;SDS011;204;48.942;9.256;2023-04-24T12:05:27;3.40;;;1.70;;
434;SDS011;204;48.942;9.256;2023-04-24T12:07:55;3.15;;;2.08;;
434;SDS011;204;48.942;9.256;2023-04-24T12:10:21;2.50;;;2.00;;
434;SDS011;204;48.942;9.256;2023-04-24T12:12:48;3.15;;;2.20;;
434;SDS011;204;48.942;9.256;2023-04-24T12:15:16;2.75;;;2.55;;
434;SDS011;204;48.942;9.256;2023-04-24T12:17:42;2.08;;;1.95;;
434;SDS011;204;48.942;9.256;2023-04-24T12:20:08;2.97;;;2.00;;
434;SDS011;204;48.942;9.256;2023-04-24T12:25:12;2.42;;;2.22;;
434;SDS011;204;48.942;9.256;2023-04-24T12:27:39;4.15;;;2.35;;
434;SDS011;204;48.942;9.256;2023-04-24T12:30:05;2.50;;;2.30;;
434;SDS011;204;48.942;9.256;2023-04-24T12:32:40;1.90;;;1.80;;
434;SDS011;204;48.942;9.256;2023-04-24T12:35:06;2.70;;;2.50;;
434;SDS011;204;48.942;9.256;2023-04-24T12:37:32;2.30;;;1.47;;
434;SDS011;204;48.942;9.256;2023-04-24T12:40:09;2.55;;;1.60;;
434;SDS011;204;48.942;9.256;2023-04-24T12:42:36;5.22;;;1.83;;
434;SDS011;204;48.942;9.256;2023-04-24T12:45:07;7.85;;;2.00;;
434;SDS011;204;48.942;9.256;2023-04-24T12:47:33;2.33;;;1.43;;
434;SDS011;204;48.942;9.256;2023-04-24T12:50:00;1.50;;;1.40;;
434;SDS011;204;48.942;9.256;2023-04-24T12:52:27;4.43;;;2.10;;
434;SDS011;204;48.942;9.256;2023-04-24T12:54:55;2.25;;;1.85;;
434;SDS011;204;48.942;9.256;2023-04-24T12:57:25;2.00;;;1.90;;
434;SDS011;204;48.942;9.256;2023-04-24T12:59:54;2.65;;;2.20;;
434;SDS011;204;48.942;9.256;2023-04-24T13:02:21;3.45;;;1.77;;
434;SDS011;204;48.942;9.256;2023-04-24T13:04:47;2.88;;;2.00;;
434;SDS011;204;48.942;9.256;2023-04-24T13:07:14;3.05;;;2.00;;
434;SDS011;204;48.942;9.256;2023-04-24T13:09:40;3.20;;;3.00;;
434;SDS011;204;48.942;9.256;2023-04-24T13:12:06;2.70;;;2.50;;
434;SDS011;204;48.942;9.256;2023-04-24T13:14:33;2.78;;;2.63;;
434;SDS011;204;48.942;9.256;2023-04-24T13:16:58;2.70;;;2.50;;
434;SDS011;204;48.942;9.256;2023-04-24T13:19:24;3.40;;;2.30;;
434;SDS011;204;48.942;9.256;2023-04-24T13:21:51;4.00;;;2.72;;
434;SDS011;204;48.942;9.256;2023-04-24T13:24:17;3.53;;;3.40;;
434;SDS011;204;48.942;9.256;2023-04-24T13:26:43;2.70;;;2.50;;
434;SDS011;204;48.942;9.256;2023-04-24T13:29:08;2.70;;;2.50;;
434;SDS011;204;48.942;9.256;2023-04-24T13:31:34;7.30;;;2.73;;
434;SDS011;204;48.942;9.256;2023-04-24T13:34:01;2.80;;;2.10;;
434;SDS011;204;48.942;9.256;2023-04-24T13:36:27;2.40;;;2.22;;
434;SDS011;204;48.942;9.256;2023-04-24T13:38:53;2.00;;;1.90;;
434;SDS011;204;48.942;9.256;2023-04-24T13:41:19;3.63;;;2.33;;
434;SDS011;204;48.942;9.256;2023-04-24T13:43:44;2.90;;;2.70;;
434;SDS011;204;48.942;9.256;2023-04-24T13:46:10;3.50;;;2.50;;
434;SDS011;204;48.942;9.256;2023-04-24T13:48:35;2.83;;;2.50;;
434;SDS011;204;48.942;9.256;2023-04-24T13:51:01;5.33;;;3.10;;
434;SDS011;204;48.942;9.256;2023-04-24T13:53:27;2.67;;;2.47;;
434;SDS011;204;48.942;9.256;2023-04-24T13:55:52;3.67;;;2.77;;
434;SDS011;204;48.942;9.256;2023-04-24T13:58:18;2.67;;;2.47;;
434;SDS011;204;48.942;9.256;2023-04-24T14:00:44;3.33;;;2.73;;
434;SDS011;204;48.942;9.256;2023-04-24T14:03:09;4.13;;;2.87;;
434;SDS011;204;48.942;9.256;2023-04-24T14:05:35;2.80;;;2.08;;
434;SDS011;204;48.942;9.256;2023-04-24T14:08:01;2.40;;;2.20;;
434;SDS011;204;48.942;9.256;2023-04-24T14:10:27;2.73;;;2.40;;
434;SDS011;204;48.942;9.256;2023-04-24T14:12:53;4.40;;;4.17;;
434;SDS011;204;48.942;9.256;2023-04-24T14:15:18;12.67;;;9.67;;
434;SDS011;204;48.942;9.256;2023-04-24T14:17:44;7.20;;;4.97;;
434;SDS011;204;48.942;9.256;2023-04-24T14:20:12;3.30;;;3.10;;
434;SDS011;204;48.942;9.256;2023-04-24T14:22:38;3.92;;;3.75;;
434;SDS011;204;48.942;9.256;2023-04-24T14:25:04;2.33;;;2.13;;
434;SDS011;204;48.942;9.256;2023-04-24T14:27:31;4.57;;;2.58;;
434;SDS011;204;48.942;9.256;2023-04-24T14:29:57;2.33;;;2.13;;
434;SDS011;204;48.942;9.256;2023-04-24T14:32:22;2.23;;;2.03;;
434;SDS011;204;48.942;9.256;2023-04-24T14:34:48;5.13;;;2.00;;
434;SDS011;204;48.942;9.256;2023-04-24T14:37:14;5.43;;;2.63;;
434;SDS011;204;48.942;9.256;2023-04-24T14:39:40;3.23;;;2.80;;
434;SDS011;204;48.942;9.256;2023-04-24T14:42:05;3.17;;;2.43;;
434;SDS011;204;48.942;9.256;2023-04-24T14:44:31;3.00;;;2.00;;
434;SDS011;204;48.942;9.256;2023-04-24T14:46:57;2.57;;;1.97;;
434;SDS011;204;48.942;9.256;2023-04-24T14:49:23;3.08;;;2.88;;
434;SDS011;204;48.942;9.256;2023-04-24T14:51:49;3.57;;;2.00;;
434;SDS011;204;48.942;9.256;2023-04-24T14:54:14;5.80;;;2.00;;
434;SDS011;204;48.942;9.256;2023-04-24T14:56:40;2.20;;;2.00;;
434;SDS011;204;48.942;9.256;2023-04-24T14:59:07;2.33;;;2.17;;
434;SDS011;204;48.942;9.256;2023-04-24T15:01:33;1.93;;;1.83;;
434;SDS011;204;48.942;9.256;2023-04-24T15:03:59;1.60;;;1.53;;
434;SDS011;204;48.942;9.256;2023-04-24T15:06:24;2.40;;;2.10;;
434;SDS011;204;48.942;9.256;2023-04-24T15:08:50;3.23;;;1.87;;
434;SDS011;204;48.942;9.256;2023-04-24T15:11:16;1.83;;;1.50;;
434;SDS011;204;48.942;9.256;2023-04-24T15:13:42;1.88;;;1.80;;
434;SDS011;204;48.942;9.256;2023-04-24T15:16:07;2.67;;;1.40;;
434;SDS011;204;48.942;9.256;2023-04-24T15:18:33;4.60;;;1.97;;
434;SDS011;204;48.942;9.256;2023-04-24T15:20:58;2.40;;;1.40;;
434;SDS011;204;48.942;9.256;2023-04-24T15:23:24;1.70;;;1.60;;
434;SDS011;204;48.942;9.256;2023-04-24T15:25:50;1.50;;;1.40;;
434;SDS011;204;48.942;9.256;2023-04-24T15:28:15;1.83;;;1.80;;
434;SDS011;204;48.942;9.256;2023-04-24T15:30:42;9.45;;;7.32;;
434;SDS011;204;48.942;9.256;2023-04-24T15:33:08;7.90;;;6.30;;
434;SDS011;204;48.942;9.256;2023-04-24T15:35:34;4.23;;;3.00;;
434;SDS011;204;48.942;9.256;2023-04-24T15:38:00;2.00;;;1.67;;
434;SDS011;204;48.942;9.256;2023-04-24T15:40:26;2.05;;;1.92;;
434;SDS011;204;48.942;9.256;2023-04-24T15:42:52;1.88;;;1.77;;
434;SDS011;204;48.942;9.256;2023-04-24T15:45:18;1.70;;;1.53;;
434;SDS011;204;48.942;9.256;2023-04-24T15:47:44;1.80;;;1.60;;
434;SDS011;204;48.942;9.256;2023-04-24T15:50:11;2.60;;;2.40;;
434;SDS011;204;48.942;9.256;2023-04-24T15:52:37;2.37;;;2.17;;
434;SDS011;204;48.942;9.256;2023-04-24T15:55:03;3.50;;;2.10;;
434;SDS011;204;48.942;9.256;2023-04-24T15:57:29;3.17;;;2.90;;
434;SDS011;204;48.942;9.256;2023-04-24T15:59:55;2.17;;;2.00;;
434;SDS011;204;48.942;9.256;2023-04-24T16:02:21;4.33;;;1.83;;